Manyberries, Canada
Current Conditions -  °F | °C
As of 1:00 PM on Saturday 25 Oct 2014 (Local Time) from CYXH Reporting Station
Overcast Overcast  
Wind Chill: 54°   Ceiling: 29000
Heat Index: 54°   Visibility: 30mi
Dew Point: 28°   Wind: 14mph
Humidity: 38%   Direction: 80°E
Pressure: 29.86"   Gusts: NA
Location:  49.4°N, 110.7°W
Report Text: CYXH 251900Z 08012KT 30SM FEW095 OVC290 12/M02 A2986 RMK AC2CI6 SLP125 DENSITY ALT 2600FT
Loading
Personal Weather Stations






























Interactive Weather Map New forecast layout! Learn more

10-Day Weather Forecast

Advertisements
Track Severe Weather on mobile